Time;durP1;ratioP1;P1;durP2;ratioP2;P2;SDS_P1;SDS_P2;PMS_P1;PMS_P2;Temp;Humidity;BMP_temperature;BMP_pressure;BME280_temperature;BME280_humidity;BME280_pressure;Samples;Min_cycle;Max_cycle;Signal;HPM_P1;HPM_P2
2022/11/27 00:01:26;;;;;;;31.07;18.57;;;;;;;;;;5019630;28;20224;-61
2022/11/27 00:03:54;;;;;;;31.77;18.30;;;;;;;;;;5032197;28;21140;-61
2022/11/27 00:06:23;;;;;;;34.50;20.03;;;;;;;;;;5016107;28;21352;-59
2022/11/27 00:08:50;;;;;;;30.40;16.70;;;;;;;;;;5019365;28;20246;-60
2022/11/27 00:11:20;;;;;;;33.13;19.17;;;;;;;;;;5038108;28;20218;-60
2022/11/27 00:13:48;;;;;;;33.90;19.13;;;;;;;;;;5028565;28;20235;-60
2022/11/27 00:16:16;;;;;;;30.30;19.23;;;;;;;;;;5038911;28;20198;-60
2022/11/27 00:18:44;;;;;;;38.87;20.27;;;;;;;;;;5040802;28;20619;-60
2022/11/27 00:21:21;;;;;;;39.97;19.53;;;;;;;;;;5035089;28;20900;-61
2022/11/27 00:23:48;;;;;;;44.73;20.80;;;;;;;;;;5040834;28;20225;-60
2022/11/27 00:26:15;;;;;;;40.23;20.97;;;;;;;;;;5025559;28;20210;-61
2022/11/27 00:28:43;;;;;;;35.47;18.90;;;;;;;;;;5014460;28;20212;-60
2022/11/27 00:31:29;;;;;;;31.20;17.97;;;;;;;;;;5027592;28;20274;-61
2022/11/27 00:33:58;;;;;;;29.00;15.43;;;;;;;;;;5024084;28;20237;-60
2022/11/27 00:36:25;;;;;;;38.53;16.03;;;;;;;;;;5012565;28;20225;-60
2022/11/27 00:38:53;;;;;;;28.23;13.10;;;;;;;;;;5026586;28;20231;-60
2022/11/27 00:41:22;;;;;;;20.37;11.03;;;;;;;;;;5014895;28;20209;-61
2022/11/27 00:43:50;;;;;;;22.47;12.40;;;;;;;;;;5025328;28;20222;-60
2022/11/27 00:46:19;;;;;;;23.93;13.07;;;;;;;;;;5022658;28;20205;-60
2022/11/27 00:48:54;;;;;;;22.20;13.50;;;;;;;;;;5018386;28;20301;-61
2022/11/27 00:51:22;;;;;;;24.67;13.67;;;;;;;;;;5020749;28;20209;-60
2022/11/27 00:53:49;;;;;;;20.87;13.07;;;;;;;;;;5023059;28;20484;-60
2022/11/27 00:56:21;;;;;;;26.17;14.87;;;;;;;;;;5025821;28;20297;-62
2022/11/27 00:58:49;;;;;;;26.57;16.00;;;;;;;;;;5028934;28;20293;-61
2022/11/27 01:01:21;;;;;;;24.20;14.33;;;;;;;;;;5025799;28;20217;-61
2022/11/27 01:03:49;;;;;;;19.63;13.57;;;;;;;;;;5026222;28;20481;-61
2022/11/27 01:06:17;;;;;;;20.47;11.73;;;;;;;;;;5023259;28;20944;-62
2022/11/27 01:08:44;;;;;;;16.13;11.20;;;;;;;;;;5038915;28;20304;-62
2022/11/27 01:11:16;;;;;;;17.03;11.10;;;;;;;;;;5019616;28;20287;-61
2022/11/27 01:13:44;;;;;;;15.90;11.37;;;;;;;;;;5023106;28;20229;-61
2022/11/27 01:16:13;;;;;;;12.07;10.10;;;;;;;;;;5053724;28;20210;-61
2022/11/27 01:18:42;;;;;;;15.63;9.43;;;;;;;;;;5048973;28;20223;-61
2022/11/27 01:21:10;;;;;;;13.30;9.37;;;;;;;;;;5047584;28;20281;-61
2022/11/27 01:23:37;;;;;;;11.20;8.27;;;;;;;;;;5041967;28;20329;-61
2022/11/27 01:26:05;;;;;;;10.77;7.67;;;;;;;;;;5022920;28;20933;-61
2022/11/27 01:28:33;;;;;;;10.17;7.53;;;;;;;;;;5037056;28;20300;-61
2022/11/27 01:31:05;;;;;;;9.70;6.47;;;;;;;;;;5018515;28;20229;-61
2022/11/27 01:33:32;;;;;;;10.93;7.43;;;;;;;;;;5026868;28;20320;-61
2022/11/27 01:36:01;;;;;;;11.53;8.10;;;;;;;;;;5027152;28;20206;-61
2022/11/27 01:38:29;;;;;;;14.50;9.83;;;;;;;;;;5019925;28;20419;-60
2022/11/27 01:41:07;;;;;;;10.53;8.40;;;;;;;;;;5025179;28;20224;-61
2022/11/27 01:43:39;;;;;;;9.90;7.73;;;;;;;;;;5042776;28;20233;-60
2022/11/27 01:46:21;;;;;;;9.60;7.27;;;;;;;;;;5023413;28;20701;-61
2022/11/27 01:48:50;;;;;;;7.63;6.03;;;;;;;;;;5017783;28;20768;-61
2022/11/27 01:51:18;;;;;;;7.90;6.33;;;;;;;;;;5019681;28;20303;-61
2022/11/27 01:53:45;;;;;;;8.63;6.57;;;;;;;;;;5020573;28;20229;-61
2022/11/27 01:56:14;;;;;;;9.70;6.90;;;;;;;;;;5018922;28;20695;-61
2022/11/27 01:58:41;;;;;;;11.07;7.10;;;;;;;;;;5039840;28;20215;-61
2022/11/27 02:01:09;;;;;;;9.20;6.97;;;;;;;;;;5022852;28;20946;-61
2022/11/27 02:03:36;;;;;;;10.33;7.07;;;;;;;;;;5035759;28;20882;-61
2022/11/27 02:06:04;;;;;;;12.47;7.87;;;;;;;;;;5036044;28;20266;-61
2022/11/27 02:08:31;;;;;;;12.00;7.50;;;;;;;;;;5038454;28;20209;-61
2022/11/27 02:11:10;;;;;;;12.80;8.57;;;;;;;;;;5041098;28;20253;-61
2022/11/27 02:13:39;;;;;;;17.40;10.33;;;;;;;;;;5043710;28;20316;-60
2022/11/27 02:16:10;;;;;;;12.40;9.47;;;;;;;;;;5030058;28;20210;-62
2022/11/27 02:18:55;;;;;;;16.47;9.90;;;;;;;;;;5049765;28;20264;-61
2022/11/27 02:21:23;;;;;;;12.40;8.83;;;;;;;;;;5060869;28;20232;-62
2022/11/27 02:23:55;;;;;;;15.53;10.33;;;;;;;;;;5041950;28;20229;-61
2022/11/27 02:26:40;;;;;;;13.47;8.50;;;;;;;;;;5049154;28;21060;-62
2022/11/27 02:29:12;;;;;;;12.97;7.77;;;;;;;;;;5032802;28;20221;-61
2022/11/27 02:31:39;;;;;;;12.87;9.03;;;;;;;;;;5023623;28;20215;-61
2022/11/27 02:34:10;;;;;;;14.47;7.67;;;;;;;;;;5021963;28;20246;-62
2022/11/27 02:36:39;;;;;;;12.37;8.23;;;;;;;;;;5018986;28;20214;-61
2022/11/27 02:39:11;;;;;;;14.20;7.70;;;;;;;;;;5022154;28;20757;-61
2022/11/27 02:41:43;;;;;;;12.13;8.27;;;;;;;;;;5032914;28;20214;-64
2022/11/27 02:44:11;;;;;;;10.97;8.00;;;;;;;;;;5027746;28;20313;-61
2022/11/27 02:46:39;;;;;;;13.93;8.10;;;;;;;;;;5036826;28;20897;-61
2022/11/27 02:49:13;;;;;;;13.27;7.87;;;;;;;;;;5021947;28;20194;-61
2022/11/27 02:51:46;;;;;;;10.63;7.30;;;;;;;;;;5035763;28;20430;-61
2022/11/27 02:54:15;;;;;;;11.60;7.97;;;;;;;;;;5011498;28;20235;-62
2022/11/27 02:56:43;;;;;;;13.23;7.40;;;;;;;;;;5018813;28;20232;-61
2022/11/27 02:59:12;;;;;;;9.23;7.07;;;;;;;;;;5043299;28;20198;-62
2022/11/27 03:01:42;;;;;;;11.53;7.20;;;;;;;;;;5023227;28;20214;-62
2022/11/27 03:04:13;;;;;;;16.63;7.90;;;;;;;;;;5016272;28;20238;-61
2022/11/27 03:06:43;;;;;;;14.10;8.10;;;;;;;;;;5036725;28;20216;-61
2022/11/27 03:09:33;;;;;;;11.80;7.10;;;;;;;;;;5020320;28;20257;-61
2022/11/27 03:12:01;;;;;;;13.17;7.57;;;;;;;;;;5020719;28;20293;-61
2022/11/27 03:14:29;;;;;;;11.57;7.93;;;;;;;;;;5026218;28;20290;-61
2022/11/27 03:17:02;;;;;;;12.77;8.30;;;;;;;;;;5019574;28;20205;-62
2022/11/27 03:19:50;;;;;;;12.90;8.43;;;;;;;;;;5011125;28;20331;-62
2022/11/27 03:22:17;;;;;;;11.23;8.30;;;;;;;;;;4988908;28;20248;-62
2022/11/27 03:24:48;;;;;;;13.67;9.50;;;;;;;;;;5026027;28;20292;-61
2022/11/27 03:27:19;;;;;;;11.47;8.77;;;;;;;;;;5017291;28;20939;-62
2022/11/27 03:29:57;;;;;;;13.70;9.23;;;;;;;;;;5022535;28;20298;-60
2022/11/27 03:32:26;;;;;;;11.43;9.07;;;;;;;;;;5019874;28;20225;-61
2022/11/27 03:34:53;;;;;;;13.43;8.73;;;;;;;;;;5017941;28;20225;-61
2022/11/27 03:37:21;;;;;;;18.07;9.10;;;;;;;;;;5019174;28;20671;-62
2022/11/27 03:39:49;;;;;;;18.00;12.73;;;;;;;;;;5006570;28;20256;-61
2022/11/27 03:42:19;;;;;;;17.47;12.33;;;;;;;;;;5018476;28;20229;-60
2022/11/27 03:44:55;;;;;;;14.83;10.00;;;;;;;;;;5013611;28;20197;-61
2022/11/27 03:47:38;;;;;;;15.53;10.27;;;;;;;;;;5016109;28;20201;-61
2022/11/27 03:50:25;;;;;;;12.17;9.40;;;;;;;;;;5014007;28;20231;-61
2022/11/27 03:53:02;;;;;;;16.43;10.30;;;;;;;;;;4987383;28;20228;-61
2022/11/27 03:55:49;;;;;;;17.67;10.50;;;;;;;;;;5005632;28;20240;-60
2022/11/27 03:58:32;;;;;;;17.40;10.40;;;;;;;;;;5008171;28;20212;-60
2022/11/27 04:01:00;;;;;;;16.93;10.50;;;;;;;;;;5023103;28;21041;-61
2022/11/27 04:03:29;;;;;;;14.10;10.30;;;;;;;;;;5032466;28;20547;-61
2022/11/27 04:05:56;;;;;;;16.53;10.07;;;;;;;;;;5056524;28;20271;-61
2022/11/27 04:08:24;;;;;;;16.30;9.87;;;;;;;;;;5030213;28;20597;-61
2022/11/27 04:10:51;;;;;;;14.00;9.90;;;;;;;;;;5033234;28;20233;-61
2022/11/27 04:13:19;;;;;;;15.90;9.70;;;;;;;;;;5051926;28;20309;-61
2022/11/27 04:15:47;;;;;;;16.37;11.17;;;;;;;;;;5037016;28;20215;-61
2022/11/27 04:18:14;;;;;;;17.40;10.37;;;;;;;;;;5026539;28;20205;-59
2022/11/27 04:20:42;;;;;;;12.67;9.90;;;;;;;;;;5025203;28;20206;-61
2022/11/27 04:23:09;;;;;;;13.70;9.00;;;;;;;;;;5006661;28;20233;-61
2022/11/27 04:25:36;;;;;;;13.03;10.10;;;;;;;;;;5032487;28;20217;-60
2022/11/27 04:28:04;;;;;;;16.20;10.83;;;;;;;;;;5019227;28;20838;-60
2022/11/27 04:30:31;;;;;;;13.40;9.80;;;;;;;;;;5025582;28;20225;-60
2022/11/27 04:32:59;;;;;;;16.37;10.47;;;;;;;;;;5030292;28;20225;-60
2022/11/27 04:35:26;;;;;;;16.13;10.23;;;;;;;;;;5028050;28;20735;-60
2022/11/27 04:37:54;;;;;;;14.17;10.10;;;;;;;;;;5034959;28;20197;-61
2022/11/27 04:40:21;;;;;;;13.83;9.53;;;;;;;;;;5031257;28;20217;-60
2022/11/27 04:42:49;;;;;;;13.23;9.33;;;;;;;;;;5026629;28;20232;-60
2022/11/27 04:45:17;;;;;;;12.37;9.73;;;;;;;;;;5016251;28;20205;-63
2022/11/27 04:47:44;;;;;;;11.83;8.77;;;;;;;;;;5009659;28;20296;-63
2022/11/27 04:50:11;;;;;;;12.13;9.47;;;;;;;;;;5016327;28;20253;-62
2022/11/27 04:52:39;;;;;;;17.07;10.43;;;;;;;;;;5029864;28;20376;-60
2022/11/27 04:55:06;;;;;;;13.13;8.90;;;;;;;;;;5021693;28;20552;-60
2022/11/27 04:57:34;;;;;;;12.73;9.40;;;;;;;;;;5030675;28;20213;-60
2022/11/27 05:00:02;;;;;;;13.47;8.90;;;;;;;;;;5012213;28;20212;-61
2022/11/27 05:02:30;;;;;;;10.23;7.93;;;;;;;;;;5033209;28;21531;-60
2022/11/27 05:04:58;;;;;;;10.73;7.97;;;;;;;;;;5018587;28;20208;-61
2022/11/27 05:07:25;;;;;;;7.80;6.60;;;;;;;;;;5035856;28;21895;-61
2022/11/27 05:09:52;;;;;;;8.90;7.10;;;;;;;;;;5023115;28;20205;-60
2022/11/27 05:12:19;;;;;;;9.80;7.30;;;;;;;;;;5037890;28;20228;-61
2022/11/27 05:14:47;;;;;;;9.23;7.57;;;;;;;;;;5022903;28;20208;-61
2022/11/27 05:17:14;;;;;;;12.27;8.33;;;;;;;;;;5026462;28;20931;-61
2022/11/27 05:19:42;;;;;;;9.57;7.67;;;;;;;;;;5015499;28;20205;-61
2022/11/27 05:22:09;;;;;;;11.67;8.50;;;;;;;;;;5012414;28;20241;-62
2022/11/27 05:24:37;;;;;;;10.93;7.87;;;;;;;;;;5014331;28;20294;-61
2022/11/27 05:27:05;;;;;;;9.73;7.80;;;;;;;;;;5037966;28;20765;-61
2022/11/27 05:29:32;;;;;;;10.20;7.53;;;;;;;;;;5010190;28;20217;-61
2022/11/27 05:31:59;;;;;;;9.00;7.00;;;;;;;;;;5037830;28;20786;-61
2022/11/27 05:34:27;;;;;;;10.57;7.70;;;;;;;;;;5025957;28;20303;-61
2022/11/27 05:36:54;;;;;;;10.40;7.50;;;;;;;;;;5019323;28;20205;-61
2022/11/27 05:39:21;;;;;;;9.00;7.60;;;;;;;;;;5016182;28;20220;-60
2022/11/27 05:41:49;;;;;;;8.93;7.03;;;;;;;;;;5010182;28;20242;-62
2022/11/27 05:44:16;;;;;;;9.20;6.93;;;;;;;;;;5022264;28;20346;-60
2022/11/27 05:46:43;;;;;;;9.83;7.03;;;;;;;;;;5029156;28;23580;-63
2022/11/27 05:49:12;;;;;;;8.33;6.50;;;;;;;;;;5016433;28;20231;-62
2022/11/27 05:51:40;;;;;;;9.10;7.53;;;;;;;;;;5015920;28;20368;-63
2022/11/27 05:54:15;;;;;;;9.80;6.83;;;;;;;;;;5034470;28;20236;-62
2022/11/27 05:56:42;;;;;;;10.60;7.77;;;;;;;;;;5015717;28;20218;-62
2022/11/27 05:59:11;;;;;;;9.13;7.37;;;;;;;;;;5031787;28;20196;-61
2022/11/27 06:01:39;;;;;;;9.50;7.10;;;;;;;;;;5050364;28;20293;-61
2022/11/27 06:04:06;;;;;;;9.07;7.60;;;;;;;;;;5034068;28;20315;-62
2022/11/27 06:06:33;;;;;;;13.47;7.47;;;;;;;;;;5035295;28;20740;-63
2022/11/27 06:09:01;;;;;;;10.50;8.07;;;;;;;;;;5035156;28;20209;-60
2022/11/27 06:11:28;;;;;;;9.97;7.63;;;;;;;;;;5050890;28;20340;-62
2022/11/27 06:13:55;;;;;;;10.57;7.50;;;;;;;;;;5033313;28;20236;-63
2022/11/27 06:16:24;;;;;;;11.47;7.60;;;;;;;;;;5035386;28;20202;-61
2022/11/27 06:18:52;;;;;;;10.90;7.70;;;;;;;;;;5028126;28;20675;-60
2022/11/27 06:21:20;;;;;;;10.07;6.83;;;;;;;;;;5045638;28;20240;-61
2022/11/27 06:23:47;;;;;;;9.77;7.43;;;;;;;;;;5037293;28;20371;-61
2022/11/27 06:26:19;;;;;;;10.67;7.50;;;;;;;;;;5040284;28;20650;-61
2022/11/27 06:28:47;;;;;;;9.13;6.80;;;;;;;;;;5031991;28;20789;-62
2022/11/27 06:31:17;;;;;;;11.23;7.40;;;;;;;;;;5036396;28;20228;-62
2022/11/27 06:33:48;;;;;;;9.60;6.83;;;;;;;;;;5021531;28;20225;-63
2022/11/27 06:36:16;;;;;;;9.67;7.70;;;;;;;;;;5032359;28;20251;-62
2022/11/27 06:38:45;;;;;;;9.27;7.20;;;;;;;;;;5023863;28;20358;-62
2022/11/27 06:41:13;;;;;;;10.20;6.93;;;;;;;;;;5030911;28;20207;-63
2022/11/27 06:43:41;;;;;;;10.70;6.80;;;;;;;;;;5030932;28;20297;-62
2022/11/27 06:46:11;;;;;;;9.73;6.73;;;;;;;;;;5024772;28;20639;-62
2022/11/27 06:48:38;;;;;;;10.47;7.17;;;;;;;;;;5024083;28;20209;-63
2022/11/27 06:51:06;;;;;;;10.57;6.57;;;;;;;;;;5040295;28;20258;-62
2022/11/27 06:53:36;;;;;;;9.63;6.73;;;;;;;;;;5033945;28;20255;-61
2022/11/27 06:56:03;;;;;;;9.90;7.03;;;;;;;;;;5026822;28;20212;-62
2022/11/27 06:58:31;;;;;;;11.93;7.30;;;;;;;;;;5027999;28;20204;-64
2022/11/27 07:00:58;;;;;;;10.60;7.40;;;;;;;;;;5042984;28;20215;-62
2022/11/27 07:03:26;;;;;;;13.27;7.73;;;;;;;;;;5025557;28;20221;-62
2022/11/27 07:05:53;;;;;;;13.93;9.57;;;;;;;;;;5028895;28;20295;-62
2022/11/27 07:08:21;;;;;;;12.70;9.97;;;;;;;;;;5044080;28;20303;-60
2022/11/27 07:10:48;;;;;;;17.93;10.23;;;;;;;;;;5020855;28;20213;-62
2022/11/27 07:13:16;;;;;;;15.20;10.13;;;;;;;;;;5024898;28;21996;-61
2022/11/27 07:15:44;;;;;;;11.33;8.93;;;;;;;;;;5039131;28;20215;-62
2022/11/27 07:18:11;;;;;;;11.43;7.87;;;;;;;;;;5028368;28;20684;-62
2022/11/27 07:20:38;;;;;;;10.33;8.33;;;;;;;;;;5017508;28;20233;-62
2022/11/27 07:23:06;;;;;;;14.00;11.37;;;;;;;;;;5027388;28;20235;-61
2022/11/27 07:25:33;;;;;;;22.90;16.50;;;;;;;;;;5021121;28;20347;-62
2022/11/27 07:28:00;;;;;;;19.30;15.17;;;;;;;;;;5024481;28;20258;-62
2022/11/27 07:30:28;;;;;;;18.57;14.60;;;;;;;;;;5020079;28;20209;-62
2022/11/27 07:32:55;;;;;;;22.43;16.70;;;;;;;;;;5022645;28;20676;-62
2022/11/27 07:35:22;;;;;;;18.53;14.53;;;;;;;;;;5043994;28;20309;-61
2022/11/27 07:37:50;;;;;;;17.63;14.90;;;;;;;;;;5022176;28;20873;-60
2022/11/27 07:40:18;;;;;;;21.33;14.60;;;;;;;;;;5043205;28;20646;-61
2022/11/27 07:42:45;;;;;;;12.07;9.50;;;;;;;;;;5022174;28;20264;-61
2022/11/27 07:45:12;;;;;;;9.10;7.30;;;;;;;;;;5025950;28;20210;-62
2022/11/27 07:47:40;;;;;;;9.73;6.97;;;;;;;;;;5022017;28;20289;-61
2022/11/27 07:50:08;;;;;;;8.30;6.77;;;;;;;;;;5024969;28;20209;-62
2022/11/27 07:52:35;;;;;;;8.13;6.40;;;;;;;;;;5044448;28;20243;-61
2022/11/27 07:55:09;;;;;;;10.70;6.97;;;;;;;;;;5022442;28;20205;-61
2022/11/27 07:57:36;;;;;;;8.87;7.27;;;;;;;;;;5039125;28;20359;-61
2022/11/27 08:00:04;;;;;;;10.17;7.83;;;;;;;;;;5027311;28;20305;-61
2022/11/27 08:02:31;;;;;;;12.17;9.20;;;;;;;;;;5047307;28;20718;-62
2022/11/27 08:04:59;;;;;;;13.47;10.87;;;;;;;;;;5046377;28;20209;-62
2022/11/27 08:07:27;;;;;;;12.10;9.70;;;;;;;;;;5039861;28;20216;-61
2022/11/27 08:09:57;;;;;;;10.40;8.17;;;;;;;;;;5047271;28;20627;-61
2022/11/27 08:12:24;;;;;;;11.10;7.33;;;;;;;;;;5027844;28;20320;-62
2022/11/27 08:14:52;;;;;;;14.57;10.87;;;;;;;;;;5020961;28;21225;-61
2022/11/27 08:17:19;;;;;;;12.03;9.50;;;;;;;;;;5025847;28;20212;-61
2022/11/27 08:19:46;;;;;;;12.77;8.50;;;;;;;;;;5018635;28;20267;-62
2022/11/27 08:22:14;;;;;;;11.03;8.00;;;;;;;;;;5037379;28;20316;-62
2022/11/27 08:24:42;;;;;;;10.17;7.40;;;;;;;;;;5017859;28;20216;-62
2022/11/27 08:27:10;;;;;;;12.80;8.87;;;;;;;;;;5037305;28;20666;-62
2022/11/27 08:29:38;;;;;;;11.40;7.80;;;;;;;;;;5041768;28;20912;-62
2022/11/27 08:32:05;;;;;;;12.53;8.77;;;;;;;;;;5018227;28;20217;-62
2022/11/27 08:34:33;;;;;;;9.50;6.87;;;;;;;;;;5029793;28;20858;-61
2022/11/27 08:37:00;;;;;;;16.20;12.37;;;;;;;;;;5019838;28;20216;-61
2022/11/27 08:39:27;;;;;;;10.90;9.80;;;;;;;;;;5025471;28;20300;-62
2022/11/27 08:41:55;;;;;;;8.47;7.53;;;;;;;;;;5027134;28;20238;-62
2022/11/27 08:44:22;;;;;;;10.07;7.17;;;;;;;;;;5041410;28;20208;-61
2022/11/27 08:46:49;;;;;;;7.80;6.00;;;;;;;;;;5023376;28;20206;-61
2022/11/27 08:49:17;;;;;;;9.23;7.33;;;;;;;;;;5045041;28;20318;-61
2022/11/27 08:51:44;;;;;;;7.50;5.60;;;;;;;;;;5029080;28;20232;-62
2022/11/27 08:54:11;;;;;;;6.23;4.50;;;;;;;;;;5022737;28;20257;-62
2022/11/27 08:56:39;;;;;;;5.83;4.27;;;;;;;;;;5040265;28;20267;-61
2022/11/27 08:59:06;;;;;;;7.27;5.20;;;;;;;;;;5025009;28;20209;-62
2022/11/27 09:01:34;;;;;;;5.17;4.60;;;;;;;;;;5023781;28;20217;-61
2022/11/27 09:04:01;;;;;;;7.10;6.40;;;;;;;;;;5018380;28;20290;-62
2022/11/27 09:06:30;;;;;;;22.80;19.33;;;;;;;;;;5005054;28;20217;-61
2022/11/27 09:08:59;;;;;;;12.20;10.93;;;;;;;;;;5007987;28;20245;-61
2022/11/27 09:11:27;;;;;;;5.20;4.70;;;;;;;;;;5017357;28;20221;-63
2022/11/27 09:13:54;;;;;;;5.10;4.60;;;;;;;;;;5005553;28;20225;-62
2022/11/27 09:16:22;;;;;;;6.47;5.50;;;;;;;;;;5003986;28;20398;-62
2022/11/27 09:18:50;;;;;;;6.63;5.07;;;;;;;;;;5006003;28;20213;-61
2022/11/27 09:21:19;;;;;;;5.80;5.00;;;;;;;;;;5002641;28;20565;-62
2022/11/27 09:23:52;;;;;;;6.63;5.53;;;;;;;;;;5018020;28;20247;-62
2022/11/27 09:26:19;;;;;;;4.33;3.93;;;;;;;;;;5006247;28;20638;-63
2022/11/27 09:28:47;;;;;;;3.60;3.30;;;;;;;;;;5012677;28;20686;-62
2022/11/27 09:31:15;;;;;;;4.73;3.93;;;;;;;;;;5008989;28;20912;-62
2022/11/27 09:33:43;;;;;;;4.57;3.90;;;;;;;;;;5015388;28;20248;-62
2022/11/27 09:36:12;;;;;;;4.00;3.60;;;;;;;;;;5009891;28;20232;-62
2022/11/27 09:38:39;;;;;;;5.17;3.80;;;;;;;;;;5000402;28;20524;-61
2022/11/27 09:41:15;;;;;;;4.50;4.10;;;;;;;;;;5001066;28;20206;-61
2022/11/27 09:43:49;;;;;;;5.13;3.60;;;;;;;;;;5006899;28;20232;-63
2022/11/27 09:46:22;;;;;;;5.27;3.60;;;;;;;;;;5019970;28;20209;-62
2022/11/27 09:48:50;;;;;;;3.87;3.50;;;;;;;;;;5013306;28;20217;-62
2022/11/27 09:51:26;;;;;;;4.90;4.30;;;;;;;;;;5000663;28;20220;-62
2022/11/27 09:54:14;;;;;;;7.73;4.37;;;;;;;;;;5000410;28;20233;-62
2022/11/27 09:56:42;;;;;;;4.60;3.70;;;;;;;;;;5017738;28;22332;-62
2022/11/27 09:59:15;;;;;;;4.13;3.30;;;;;;;;;;5013982;28;20264;-62
2022/11/27 10:01:43;;;;;;;3.30;3.00;;;;;;;;;;5037489;28;20202;-62
2022/11/27 10:04:18;;;;;;;3.13;2.80;;;;;;;;;;5025810;28;20232;-62
2022/11/27 10:06:55;;;;;;;3.50;3.20;;;;;;;;;;5013908;28;20212;-62
2022/11/27 10:09:31;;;;;;;4.67;3.30;;;;;;;;;;5040444;28;20279;-62
2022/11/27 10:12:13;;;;;;;3.87;3.50;;;;;;;;;;5035298;28;20228;-62
2022/11/27 10:15:02;;;;;;;3.97;3.57;;;;;;;;;;5028359;28;21244;-62
2022/11/27 10:17:51;;;;;;;3.90;3.40;;;;;;;;;;5040904;28;20246;-62
2022/11/27 10:20:18;;;;;;;5.20;3.90;;;;;;;;;;5031951;28;20202;-62
2022/11/27 10:23:09;;;;;;;3.87;3.47;;;;;;;;;;5043578;28;20596;-61
2022/11/27 10:25:39;;;;;;;3.03;2.80;;;;;;;;;;5034682;28;21185;-62
2022/11/27 10:28:10;;;;;;;4.07;3.27;;;;;;;;;;5040813;28;20283;-62
2022/11/27 10:30:39;;;;;;;3.03;2.83;;;;;;;;;;5019001;28;20293;-62
2022/11/27 10:33:26;;;;;;;3.10;2.83;;;;;;;;;;5019046;28;20466;-62
2022/11/27 10:35:54;;;;;;;3.53;3.13;;;;;;;;;;5029406;28;20308;-62
2022/11/27 10:38:25;;;;;;;4.33;3.17;;;;;;;;;;5013716;28;20352;-63
2022/11/27 10:41:13;;;;;;;5.47;3.70;;;;;;;;;;5024819;28;20283;-62
2022/11/27 10:44:03;;;;;;;4.03;3.13;;;;;;;;;;5011663;28;20233;-63
2022/11/27 10:46:33;;;;;;;3.60;3.10;;;;;;;;;;5020504;28;20229;-62
2022/11/27 10:49:01;;;;;;;3.40;3.10;;;;;;;;;;5024357;28;20220;-63
2022/11/27 10:51:33;;;;;;;4.00;3.17;;;;;;;;;;5026198;28;20209;-62
2022/11/27 10:54:01;;;;;;;3.10;2.90;;;;;;;;;;5020499;28;20233;-62
2022/11/27 10:56:48;;;;;;;3.40;3.10;;;;;;;;;;5016200;28;20338;-63
2022/11/27 10:59:18;;;;;;;4.43;3.37;;;;;;;;;;5015113;28;20335;-63
2022/11/27 11:01:48;;;;;;;3.97;3.60;;;;;;;;;;5017514;28;20637;-62
2022/11/27 11:04:20;;;;;;;4.47;3.40;;;;;;;;;;5046854;28;20318;-63
2022/11/27 11:07:24;;;;;;;3.90;3.43;;;;;;;;;;5022620;28;20213;-62
2022/11/27 11:09:53;;;;;;;3.37;3.07;;;;;;;;;;5010169;28;20205;-62
2022/11/27 11:12:21;;;;;;;3.57;3.10;;;;;;;;;;5011624;28;20226;-62
2022/11/27 11:14:53;;;;;;;5.63;3.07;;;;;;;;;;5015471;28;20194;-63
2022/11/27 11:17:27;;;;;;;3.80;3.20;;;;;;;;;;5018100;28;20203;-63
2022/11/27 11:19:55;;;;;;;4.10;3.23;;;;;;;;;;5053619;28;20256;-63
2022/11/27 11:22:23;;;;;;;3.33;3.03;;;;;;;;;;5026200;28;20312;-63
2022/11/27 11:24:51;;;;;;;3.73;3.17;;;;;;;;;;5030515;28;20209;-62
2022/11/27 11:27:22;;;;;;;3.97;3.07;;;;;;;;;;5027666;28;20288;-63
2022/11/27 11:29:51;;;;;;;4.03;3.07;;;;;;;;;;5030322;28;21965;-63
2022/11/27 11:32:32;;;;;;;3.97;3.57;;;;;;;;;;5037082;28;20272;-62
2022/11/27 11:35:03;;;;;;;4.47;3.60;;;;;;;;;;5037197;28;20264;-63
2022/11/27 11:37:33;;;;;;;4.07;3.60;;;;;;;;;;5025614;28;20210;-67
2022/11/27 11:40:07;;;;;;;4.97;3.63;;;;;;;;;;5026780;28;20292;-63
2022/11/27 11:42:57;;;;;;;3.33;3.03;;;;;;;;;;5057301;28;20278;-63
2022/11/27 11:45:25;;;;;;;4.20;3.73;;;;;;;;;;5037037;28;20844;-63
2022/11/27 11:48:17;;;;;;;3.23;2.97;;;;;;;;;;5034753;28;20671;-63
2022/11/27 11:50:47;;;;;;;3.60;3.30;;;;;;;;;;5034151;28;20233;-62
2022/11/27 11:53:15;;;;;;;3.30;2.93;;;;;;;;;;5025379;28;20237;-63
2022/11/27 11:55:58;;;;;;;3.57;3.20;;;;;;;;;;5036046;28;20211;-63
2022/11/27 11:58:35;;;;;;;4.03;3.27;;;;;;;;;;5027563;28;20815;-63
2022/11/27 12:01:03;;;;;;;3.33;3.00;;;;;;;;;;5018652;28;20198;-62
2022/11/27 12:03:53;;;;;;;7.00;4.80;;;;;;;;;;5015166;28;20236;-63
2022/11/27 12:06:36;;;;;;;6.60;4.53;;;;;;;;;;5037945;28;20202;-62
2022/11/27 12:09:10;;;;;;;11.10;7.20;;;;;;;;;;5005618;28;20217;-62
2022/11/27 12:11:48;;;;;;;6.40;4.40;;;;;;;;;;5023553;28;20206;-62
2022/11/27 12:14:19;;;;;;;4.40;4.00;;;;;;;;;;5035640;28;20225;-63
2022/11/27 12:16:47;;;;;;;4.57;3.40;;;;;;;;;;5054000;28;20216;-63
2022/11/27 12:19:33;;;;;;;3.70;3.30;;;;;;;;;;5044380;28;20206;-63
2022/11/27 12:22:08;;;;;;;4.53;3.90;;;;;;;;;;5048986;28;20237;-63
2022/11/27 12:24:48;;;;;;;3.67;3.37;;;;;;;;;;5046755;28;20208;-62
2022/11/27 12:27:34;;;;;;;5.30;4.80;;;;;;;;;;5042207;28;20714;-62
2022/11/27 12:30:06;;;;;;;6.30;5.20;;;;;;;;;;5055034;28;20201;-62
2022/11/27 12:32:39;;;;;;;5.43;4.87;;;;;;;;;;5034357;28;20757;-62
2022/11/27 12:35:22;;;;;;;5.93;5.23;;;;;;;;;;5036118;28;20705;-62
2022/11/27 12:37:50;;;;;;;7.80;6.43;;;;;;;;;;5042149;28;20295;-62
2022/11/27 12:40:32;;;;;;;7.33;4.87;;;;;;;;;;5031257;28;20233;-62
2022/11/27 12:43:08;;;;;;;5.07;4.57;;;;;;;;;;5020004;28;20466;-62
2022/11/27 12:45:43;;;;;;;4.60;4.20;;;;;;;;;;5034533;28;20346;-63
2022/11/27 12:48:40;;;;;;;5.23;4.30;;;;;;;;;;5038274;28;20217;-62
2022/11/27 12:51:09;;;;;;;4.13;3.73;;;;;;;;;;5028155;28;20767;-63
2022/11/27 12:53:58;;;;;;;4.77;4.37;;;;;;;;;;5055626;28;20657;-62
2022/11/27 12:56:28;;;;;;;5.60;4.63;;;;;;;;;;5050655;28;23015;-63
2022/11/27 12:59:05;;;;;;;5.47;4.97;;;;;;;;;;5026182;28;20296;-62
2022/11/27 13:01:36;;;;;;;5.53;4.40;;;;;;;;;;5030646;28;20271;-62
2022/11/27 13:04:03;;;;;;;4.97;4.57;;;;;;;;;;5041358;28;20400;-62
2022/11/27 13:06:32;;;;;;;5.50;5.00;;;;;;;;;;5038330;28;20241;-63
2022/11/27 13:09:05;;;;;;;7.20;6.50;;;;;;;;;;5061150;28;20288;-62
2022/11/27 13:11:35;;;;;;;6.70;6.03;;;;;;;;;;5036353;28;20305;-64
2022/11/27 13:14:21;;;;;;;6.07;5.47;;;;;;;;;;5038555;28;20717;-63
2022/11/27 13:16:51;;;;;;;5.10;4.67;;;;;;;;;;5039715;28;20549;-64
2022/11/27 13:19:19;;;;;;;5.20;4.70;;;;;;;;;;5033693;28;20199;-63
2022/11/27 13:21:47;;;;;;;4.87;4.30;;;;;;;;;;5055196;28;20201;-63
2022/11/27 13:24:15;;;;;;;4.87;4.37;;;;;;;;;;5053112;28;22474;-63
2022/11/27 13:26:45;;;;;;;5.53;4.67;;;;;;;;;;5035008;28;20206;-62
2022/11/27 13:29:19;;;;;;;4.90;4.43;;;;;;;;;;5035522;28;20264;-62
2022/11/27 13:31:48;;;;;;;4.70;4.30;;;;;;;;;;5036423;28;20200;-62
2022/11/27 13:34:24;;;;;;;5.13;4.70;;;;;;;;;;5046188;28;20282;-62
2022/11/27 13:36:56;;;;;;;4.73;4.33;;;;;;;;;;5043192;28;20392;-63
2022/11/27 13:39:26;;;;;;;5.47;4.97;;;;;;;;;;5059154;28;20206;-62
2022/11/27 13:42:05;;;;;;;5.50;5.00;;;;;;;;;;5031663;28;20292;-63
2022/11/27 13:44:36;;;;;;;5.53;5.00;;;;;;;;;;5040222;28;20346;-63
2022/11/27 13:47:15;;;;;;;6.20;4.97;;;;;;;;;;5027952;28;20255;-62
2022/11/27 13:49:45;;;;;;;6.10;5.50;;;;;;;;;;5058409;28;20292;-62
2022/11/27 13:52:21;;;;;;;5.80;5.20;;;;;;;;;;5053150;28;20278;-63
2022/11/27 13:54:55;;;;;;;8.83;5.70;;;;;;;;;;5029653;28;20205;-62
2022/11/27 13:57:24;;;;;;;7.50;6.43;;;;;;;;;;5049247;28;20202;-61
2022/11/27 13:59:56;;;;;;;8.13;6.43;;;;;;;;;;5043668;28;20206;-62
2022/11/27 14:02:24;;;;;;;7.50;6.67;;;;;;;;;;5045007;28;20303;-62
2022/11/27 14:04:52;;;;;;;8.23;6.70;;;;;;;;;;5046339;28;20282;-63
2022/11/27 14:07:23;;;;;;;8.17;6.70;;;;;;;;;;5041743;28;20223;-63
2022/11/27 14:09:55;;;;;;;7.17;6.40;;;;;;;;;;5028100;28;20683;-62
2022/11/27 14:12:27;;;;;;;7.63;6.83;;;;;;;;;;5035565;28;20229;-62
2022/11/27 14:15:01;;;;;;;6.80;6.07;;;;;;;;;;5031213;28;20233;-63
2022/11/27 14:17:36;;;;;;;8.27;7.07;;;;;;;;;;5048173;28;20229;-63
2022/11/27 14:20:19;;;;;;;9.87;7.67;;;;;;;;;;5026936;28;20710;-63
2022/11/27 14:22:51;;;;;;;16.30;10.77;;;;;;;;;;5013030;28;20339;-62
2022/11/27 14:25:39;;;;;;;8.00;7.03;;;;;;;;;;5020703;28;20637;-62
2022/11/27 14:28:06;;;;;;;8.43;6.87;;;;;;;;;;5022381;28;20209;-62
2022/11/27 14:30:35;;;;;;;8.70;7.57;;;;;;;;;;5031853;28;20254;-62
2022/11/27 14:33:04;;;;;;;9.00;7.93;;;;;;;;;;5017886;28;20659;-63
2022/11/27 14:35:31;;;;;;;9.67;8.27;;;;;;;;;;5001933;28;20218;-61
2022/11/27 14:38:10;;;;;;;9.07;7.87;;;;;;;;;;5023551;28;20346;-63
2022/11/27 14:40:38;;;;;;;10.57;8.63;;;;;;;;;;5021204;28;20723;-63
2022/11/27 14:43:26;;;;;;;9.70;8.00;;;;;;;;;;5010347;28;21097;-62
2022/11/27 14:45:59;;;;;;;10.10;8.63;;;;;;;;;;5016793;28;20758;-62
2022/11/27 14:48:47;;;;;;;9.47;8.33;;;;;;;;;;5013756;28;20274;-62
2022/11/27 14:51:19;;;;;;;12.47;8.87;;;;;;;;;;5003440;28;20328;-62
2022/11/27 14:53:47;;;;;;;9.03;8.13;;;;;;;;;;5019677;28;20229;-62
2022/11/27 14:56:15;;;;;;;9.90;8.27;;;;;;;;;;5042719;28;20315;-62